LDZA/ZAG METAR and TAF weather

Enter ICAO airport designator
Station Type Date Time Source
LDZA METAR 2021/07/27 20:30 UTC NOAA

LDZA 272030Z 00000KT CAVOK 23/20 Q1015 NOSIG


Station Type Date Time Source
LDZA Decoded METAR 2021/07/27 20:30 UTC NOAA

Zagreb / Pleso, Croatia (LDZA) 45-44N 016-04E 107M
Jul 27, 2021 - 04:30 PM EDT / 2021.07.27 2030 UTC
Wind: Calm:0
Visibility: greater than 7 mile(s):0
Temperature: 73 F (23 C)
Dew Point: 68 F (20 C)
Relative Humidity: 83%
Pressure (altimeter): 29.97 in. Hg (1015 hPa)
ob: LDZA 272030Z 00000KT CAVOK 23/20 Q1015 NOSIG
cycle: 20

Station Type Date Time Source
LDZA TAF 2021/07/27 18:27 UTC NOAA

TAF LDZA 271725Z 2718/2818 24004KT CAVOK TX34/2814Z TN19/2803Z
BECMG 2808/2810 24010KT

Example: see airport list